sensor_id;sensor_type;location;lat;lon;timestamp;pressure;altitude;pressure_sealevel;temperature;humidity
27220;BME280;45274;52.266;10.790;2023-09-30T00:01:49;100991.34;;;12.80;100.00
27220;BME280;45274;52.266;10.790;2023-09-30T00:04:16;100993.81;;;12.71;100.00
27220;BME280;45274;52.266;10.790;2023-09-30T00:06:47;100988.91;;;12.68;100.00
27220;BME280;45274;52.266;10.790;2023-09-30T00:09:15;100994.06;;;12.68;100.00
27220;BME280;45274;52.266;10.790;2023-09-30T00:11:40;100992.94;;;12.61;100.00
27220;BME280;45274;52.266;10.790;2023-09-30T00:14:06;101007.16;;;12.65;100.00
27220;BME280;45274;52.266;10.790;2023-09-30T00:16:34;101010.69;;;12.64;100.00
27220;BME280;45274;52.266;10.790;2023-09-30T00:19:00;101011.88;;;12.60;100.00
27220;BME280;45274;52.266;10.790;2023-09-30T00:21:33;101012.94;;;12.57;100.00
27220;BME280;45274;52.266;10.790;2023-09-30T00:23:58;101016.22;;;12.48;100.00
27220;BME280;45274;52.266;10.790;2023-09-30T00:26:24;101025.69;;;12.47;100.00
27220;BME280;45274;52.266;10.790;2023-09-30T00:28:49;101026.66;;;12.46;100.00
27220;BME280;45274;52.266;10.790;2023-09-30T00:31:17;101034.25;;;12.37;100.00
27220;BME280;45274;52.266;10.790;2023-09-30T00:33:42;101028.53;;;12.33;100.00
27220;BME280;45274;52.266;10.790;2023-09-30T00:36:09;101043.63;;;12.27;100.00
27220;BME280;45274;52.266;10.790;2023-09-30T00:38:35;101041.19;;;12.25;100.00
27220;BME280;45274;52.266;10.790;2023-09-30T00:41:01;101049.00;;;12.24;100.00
27220;BME280;45274;52.266;10.790;2023-09-30T00:43:29;101051.94;;;12.19;100.00
27220;BME280;45274;52.266;10.790;2023-09-30T00:46:18;101053.59;;;12.20;100.00
27220;BME280;45274;52.266;10.790;2023-09-30T00:48:47;101053.22;;;12.14;100.00
27220;BME280;45274;52.266;10.790;2023-09-30T00:51:16;101055.44;;;12.07;100.00
27220;BME280;45274;52.266;10.790;2023-09-30T00:53:51;101054.97;;;12.13;100.00
27220;BME280;45274;52.266;10.790;2023-09-30T00:56:43;101045.84;;;12.09;100.00
27220;BME280;45274;52.266;10.790;2023-09-30T00:59:09;101051.59;;;12.13;100.00
27220;BME280;45274;52.266;10.790;2023-09-30T01:01:34;101064.81;;;12.08;100.00
27220;BME280;45274;52.266;10.790;2023-09-30T01:04:02;101066.41;;;12.09;100.00
27220;BME280;45274;52.266;10.790;2023-09-30T01:06:27;101061.53;;;12.06;100.00
27220;BME280;45274;52.266;10.790;2023-09-30T01:08:53;101052.28;;;12.04;100.00
27220;BME280;45274;52.266;10.790;2023-09-30T01:11:20;101039.81;;;11.99;100.00
27220;BME280;45274;52.266;10.790;2023-09-30T01:13:48;101050.66;;;12.03;100.00
27220;BME280;45274;52.266;10.790;2023-09-30T01:16:14;101050.91;;;12.00;100.00
27220;BME280;45274;52.266;10.790;2023-09-30T01:18:40;101062.47;;;11.94;100.00
27220;BME280;45274;52.266;10.790;2023-09-30T01:21:08;101067.25;;;11.99;100.00
27220;BME280;45274;52.266;10.790;2023-09-30T01:23:36;101061.66;;;11.93;100.00
27220;BME280;45274;52.266;10.790;2023-09-30T01:26:03;101078.81;;;11.93;100.00
27220;BME280;45274;52.266;10.790;2023-09-30T01:28:29;101077.88;;;11.94;100.00
27220;BME280;45274;52.266;10.790;2023-09-30T01:30:56;101068.19;;;11.86;100.00
27220;BME280;45274;52.266;10.790;2023-09-30T01:33:22;101061.28;;;11.87;100.00
27220;BME280;45274;52.266;10.790;2023-09-30T01:35:48;101062.25;;;11.86;100.00
27220;BME280;45274;52.266;10.790;2023-09-30T01:38:14;101066.88;;;11.81;100.00
27220;BME280;45274;52.266;10.790;2023-09-30T01:40:41;101065.03;;;11.83;100.00
27220;BME280;45274;52.266;10.790;2023-09-30T01:43:09;101059.91;;;11.83;100.00
27220;BME280;45274;52.266;10.790;2023-09-30T01:45:41;101069.00;;;11.76;100.00
27220;BME280;45274;52.266;10.790;2023-09-30T01:48:13;101072.25;;;11.78;100.00
27220;BME280;45274;52.266;10.790;2023-09-30T01:50:42;101070.16;;;11.72;100.00
27220;BME280;45274;52.266;10.790;2023-09-30T01:53:13;101074.69;;;11.68;100.00
27220;BME280;45274;52.266;10.790;2023-09-30T01:55:42;101081.56;;;11.57;100.00
27220;BME280;45274;52.266;10.790;2023-09-30T01:58:07;101084.22;;;11.55;100.00
27220;BME280;45274;52.266;10.790;2023-09-30T02:00:36;101089.34;;;11.55;100.00
27220;BME280;45274;52.266;10.790;2023-09-30T02:03:01;101079.44;;;11.51;100.00
27220;BME280;45274;52.266;10.790;2023-09-30T02:05:27;101087.59;;;11.45;100.00
27220;BME280;45274;52.266;10.790;2023-09-30T02:07:52;101089.91;;;11.36;100.00
27220;BME280;45274;52.266;10.790;2023-09-30T02:10:19;101097.09;;;11.31;100.00
27220;BME280;45274;52.266;10.790;2023-09-30T02:12:46;101106.59;;;11.31;100.00
27220;BME280;45274;52.266;10.790;2023-09-30T02:15:14;101100.50;;;11.32;100.00
27220;BME280;45274;52.266;10.790;2023-09-30T02:17:45;101109.94;;;11.31;100.00
27220;BME280;45274;52.266;10.790;2023-09-30T02:20:13;101117.63;;;11.31;100.00
27220;BME280;45274;52.266;10.790;2023-09-30T02:22:44;101112.84;;;11.27;100.00
27220;BME280;45274;52.266;10.790;2023-09-30T02:25:10;101103.41;;;11.27;100.00
27220;BME280;45274;52.266;10.790;2023-09-30T02:27:39;101107.03;;;11.25;100.00
27220;BME280;45274;52.266;10.790;2023-09-30T02:30:05;101103.03;;;11.21;100.00
27220;BME280;45274;52.266;10.790;2023-09-30T02:32:31;101103.00;;;11.10;100.00
27220;BME280;45274;52.266;10.790;2023-09-30T02:34:58;101104.44;;;11.14;100.00
27220;BME280;45274;52.266;10.790;2023-09-30T02:37:24;101107.22;;;11.11;100.00
27220;BME280;45274;52.266;10.790;2023-09-30T02:39:53;101103.69;;;11.12;100.00
27220;BME280;45274;52.266;10.790;2023-09-30T02:42:21;101103.09;;;11.08;100.00
27220;BME280;45274;52.266;10.790;2023-09-30T02:44:48;101111.88;;;11.17;100.00
27220;BME280;45274;52.266;10.790;2023-09-30T02:47:16;101112.44;;;11.09;100.00
27220;BME280;45274;52.266;10.790;2023-09-30T02:49:42;101105.78;;;11.07;100.00
27220;BME280;45274;52.266;10.790;2023-09-30T02:52:07;101106.59;;;11.07;100.00
27220;BME280;45274;52.266;10.790;2023-09-30T02:54:33;101109.03;;;11.09;100.00
27220;BME280;45274;52.266;10.790;2023-09-30T02:56:58;101104.19;;;11.17;100.00
27220;BME280;45274;52.266;10.790;2023-09-30T02:59:24;101108.59;;;11.15;100.00
27220;BME280;45274;52.266;10.790;2023-09-30T03:01:50;101112.56;;;11.08;100.00
27220;BME280;45274;52.266;10.790;2023-09-30T03:04:17;101116.75;;;11.09;100.00
27220;BME280;45274;52.266;10.790;2023-09-30T03:06:47;101118.03;;;11.14;100.00
27220;BME280;45274;52.266;10.790;2023-09-30T03:09:13;101111.63;;;11.09;100.00
27220;BME280;45274;52.266;10.790;2023-09-30T03:11:40;101121.88;;;11.09;100.00
27220;BME280;45274;52.266;10.790;2023-09-30T03:14:09;101119.31;;;11.09;100.00
27220;BME280;45274;52.266;10.790;2023-09-30T03:16:35;101120.53;;;11.16;100.00
27220;BME280;45274;52.266;10.790;2023-09-30T03:19:03;101114.69;;;11.14;100.00
27220;BME280;45274;52.266;10.790;2023-09-30T03:21:34;101122.03;;;11.18;100.00
27220;BME280;45274;52.266;10.790;2023-09-30T03:24:03;101126.03;;;11.22;100.00
27220;BME280;45274;52.266;10.790;2023-09-30T03:26:30;101123.78;;;11.18;100.00
27220;BME280;45274;52.266;10.790;2023-09-30T03:28:55;101131.47;;;11.18;100.00
27220;BME280;45274;52.266;10.790;2023-09-30T03:31:21;101133.00;;;11.20;100.00
27220;BME280;45274;52.266;10.790;2023-09-30T03:33:49;101131.47;;;11.18;100.00
27220;BME280;45274;52.266;10.790;2023-09-30T03:36:25;101133.94;;;11.19;100.00
27220;BME280;45274;52.266;10.790;2023-09-30T03:38:58;101126.13;;;11.21;100.00
27220;BME280;45274;52.266;10.790;2023-09-30T03:41:30;101119.13;;;11.23;100.00
27220;BME280;45274;52.266;10.790;2023-09-30T03:43:56;101124.38;;;11.21;100.00
27220;BME280;45274;52.266;10.790;2023-09-30T03:46:22;101116.69;;;11.21;100.00
27220;BME280;45274;52.266;10.790;2023-09-30T03:48:47;101107.94;;;11.24;100.00
27220;BME280;45274;52.266;10.790;2023-09-30T03:51:14;101112.84;;;11.27;100.00
27220;BME280;45274;52.266;10.790;2023-09-30T03:53:46;101113.47;;;11.30;100.00
27220;BME280;45274;52.266;10.790;2023-09-30T03:56:12;101109.25;;;11.29;100.00
27220;BME280;45274;52.266;10.790;2023-09-30T03:58:41;101115.06;;;11.31;100.00
27220;BME280;45274;52.266;10.790;2023-09-30T04:01:08;101121.97;;;11.31;100.00
27220;BME280;45274;52.266;10.790;2023-09-30T04:03:36;101118.47;;;11.32;100.00
27220;BME280;45274;52.266;10.790;2023-09-30T04:06:04;101119.28;;;11.32;100.00
27220;BME280;45274;52.266;10.790;2023-09-30T04:08:30;101120.22;;;11.31;100.00
27220;BME280;45274;52.266;10.790;2023-09-30T04:10:59;101125.56;;;11.28;100.00
27220;BME280;45274;52.266;10.790;2023-09-30T04:13:24;101121.03;;;11.32;100.00
27220;BME280;45274;52.266;10.790;2023-09-30T04:15:51;101131.28;;;11.32;100.00
27220;BME280;45274;52.266;10.790;2023-09-30T04:18:16;101125.47;;;11.30;100.00
27220;BME280;45274;52.266;10.790;2023-09-30T04:20:45;101123.00;;;11.28;100.00
27220;BME280;45274;52.266;10.790;2023-09-30T04:23:12;101125.25;;;11.33;100.00
27220;BME280;45274;52.266;10.790;2023-09-30T04:25:38;101114.38;;;11.29;100.00
27220;BME280;45274;52.266;10.790;2023-09-30T04:31:08;101122.28;;;11.26;100.00
27220;BME280;45274;52.266;10.790;2023-09-30T04:33:54;101124.75;;;11.28;100.00
27220;BME280;45274;52.266;10.790;2023-09-30T04:36:28;101134.66;;;11.21;100.00
27220;BME280;45274;52.266;10.790;2023-09-30T04:38:54;101140.91;;;11.17;100.00
27220;BME280;45274;52.266;10.790;2023-09-30T04:41:25;101131.38;;;11.19;100.00
27220;BME280;45274;52.266;10.790;2023-09-30T04:46:48;101141.53;;;11.21;100.00
27220;BME280;45274;52.266;10.790;2023-09-30T04:49:19;101142.44;;;11.20;100.00
27220;BME280;45274;52.266;10.790;2023-09-30T04:52:08;101145.16;;;11.29;100.00
27220;BME280;45274;52.266;10.790;2023-09-30T04:54:47;101142.94;;;11.25;100.00
27220;BME280;45274;52.266;10.790;2023-09-30T05:00:22;101152.16;;;11.27;100.00
27220;BME280;45274;52.266;10.790;2023-09-30T05:03:00;101148.56;;;11.30;100.00
27220;BME280;45274;52.266;10.790;2023-09-30T05:08:38;101160.88;;;11.49;100.00
27220;BME280;45274;52.266;10.790;2023-09-30T05:11:04;101155.84;;;11.47;100.00
27220;BME280;45274;52.266;10.790;2023-09-30T05:13:30;101164.16;;;11.51;100.00
27220;BME280;45274;52.266;10.790;2023-09-30T05:16:09;101164.63;;;11.56;100.00
27220;BME280;45274;52.266;10.790;2023-09-30T05:18:58;101173.41;;;11.64;100.00
27220;BME280;45274;52.266;10.790;2023-09-30T06:15:30;101186.41;;;12.42;100.00
27220;BME280;45274;52.266;10.790;2023-09-30T06:18:22;101192.94;;;12.46;100.00
27220;BME280;45274;52.266;10.790;2023-09-30T06:21:37;101186.97;;;12.57;100.00
27220;BME280;45274;52.266;10.790;2023-09-30T06:28:01;101204.22;;;13.21;100.00
27220;BME280;45274;52.266;10.790;2023-09-30T06:30:53;101206.19;;;13.49;100.00
27220;BME280;45274;52.266;10.790;2023-09-30T08:21:24;101335.66;;;16.99;91.15
27220;BME280;45274;52.266;10.790;2023-09-30T08:24:06;101340.13;;;17.07;90.98
27220;BME280;45274;52.266;10.790;2023-09-30T08:26:35;101349.94;;;17.03;89.15
27220;BME280;45274;52.266;10.790;2023-09-30T08:29:28;101347.84;;;17.16;89.48
27220;BME280;45274;52.266;10.790;2023-09-30T08:35:47;101362.13;;;17.47;87.96
27220;BME280;45274;52.266;10.790;2023-09-30T08:39:04;101362.41;;;17.44;86.92
27220;BME280;45274;52.266;10.790;2023-09-30T08:42:31;101369.09;;;17.47;86.31
27220;BME280;45274;52.266;10.790;2023-09-30T08:48:02;101362.78;;;17.77;85.96
27220;BME280;45274;52.266;10.790;2023-09-30T08:50:31;101364.19;;;17.71;84.99
27220;BME280;45274;52.266;10.790;2023-09-30T08:53:08;101369.22;;;17.90;86.21
27220;BME280;45274;52.266;10.790;2023-09-30T08:55:40;101369.81;;;18.20;85.09
27220;BME280;45274;52.266;10.790;2023-09-30T08:58:34;101361.91;;;18.47;84.92
27220;BME280;45274;52.266;10.790;2023-09-30T09:01:40;101367.19;;;18.37;82.12
27220;BME280;45274;52.266;10.790;2023-09-30T09:42:41;101386.84;;;18.57;77.62
27220;BME280;45274;52.266;10.790;2023-09-30T09:48:59;101388.75;;;19.07;78.13
27220;BME280;45274;52.266;10.790;2023-09-30T09:51:33;101376.78;;;19.22;76.30
27220;BME280;45274;52.266;10.790;2023-09-30T09:54:03;101380.50;;;19.19;76.36
27220;BME280;45274;52.266;10.790;2023-09-30T09:56:39;101369.81;;;18.89;74.94
27220;BME280;45274;52.266;10.790;2023-09-30T09:59:15;101368.06;;;18.63;76.46
27220;BME280;45274;52.266;10.790;2023-09-30T10:01:46;101373.75;;;18.24;77.96
27220;BME280;45274;52.266;10.790;2023-09-30T10:04:20;101373.13;;;18.30;78.60
27220;BME280;45274;52.266;10.790;2023-09-30T15:37:13;101237.31;;;18.89;62.32
27220;BME280;45274;52.266;10.790;2023-09-30T16:32:39;101281.22;;;16.35;77.87
27220;BME280;45274;52.266;10.790;2023-09-30T17:19:38;101289.63;;;14.42;86.70
